Time;durP1;ratioP1;P1;durP2;ratioP2;P2;SDS_P1;SDS_P2;PMS_P1;PMS_P2;Temp;Humidity;BMP_temperature;BMP_pressure;BME280_temperature;BME280_humidity;BME280_pressure;Samples;Min_cycle;Max_cycle;Signal;HPM_P1;HPM_P2
2022/09/11 00:01:26;;;;;;;4.82;3.25;;;;;;;24.05;62.90;99272.63;4969649;28;20039;-86
2022/09/11 00:03:53;;;;;;;6.90;3.55;;;;;;;23.64;63.79;99203.97;4960946;28;20062;-85
2022/09/11 00:06:20;;;;;;;6.43;2.95;;;;;;;23.91;62.88;99247.66;4970580;28;20030;-85
2022/09/11 00:08:47;;;;;;;8.93;3.08;;;;;;;23.85;63.40;99249.94;4972211;28;20125;-85
2022/09/11 00:11:19;;;;;;;6.38;3.33;;;;;;;23.73;63.18;99255.25;4954221;28;20027;-84
2022/09/11 00:13:47;;;;;;;10.65;3.88;;;;;;;23.85;63.23;99263.41;4970745;28;20089;-85
2022/09/11 00:16:32;;;;;;;6.50;3.50;;;;;;;23.57;62.88;99203.56;4971944;28;20035;-86
2022/09/11 00:19:01;;;;;;;6.03;3.47;;;;;;;23.89;63.02;99267.59;4971687;28;20062;-85
2022/09/11 00:21:28;;;;;;;4.40;3.28;;;;;;;23.66;63.10;99239.69;4970366;28;20502;-86
2022/09/11 00:23:54;;;;;;;8.02;3.22;;;;;;;23.74;63.17;99266.88;4971418;28;20085;-85
2022/09/11 00:26:20;;;;;;;5.88;3.15;;;;;;;23.58;62.70;99233.06;4977605;28;20039;-86
2022/09/11 00:28:46;;;;;;;6.60;2.75;;;;;;;23.85;62.79;99277.75;4982477;28;20497;-85
2022/09/11 00:31:16;;;;;;;5.63;3.25;;;;;;;23.82;62.62;99277.06;4977021;28;20050;-88
2022/09/11 00:33:42;;;;;;;3.63;2.75;;;;;;;23.82;62.11;99251.00;4971125;28;20030;-88
2022/09/11 00:36:12;;;;;;;8.77;3.25;;;;;;;23.47;62.91;99213.34;4971475;28;20513;-88
2022/09/11 00:38:38;;;;;;;5.40;3.53;;;;;;;23.60;62.43;99244.59;4971457;28;20030;-88
2022/09/11 00:41:11;;;;;;;5.75;3.45;;;;;;;23.70;62.71;99265.41;4962359;28;20035;-87
2022/09/11 00:43:58;;;;;;;6.97;3.88;;;;;;;24.06;62.62;99312.06;4983983;28;20038;-88
2022/09/11 00:46:30;;;;;;;6.50;3.83;;;;;;;23.51;62.66;99242.59;4971915;28;20035;-86
2022/09/11 00:48:58;;;;;;;8.50;4.00;;;;;;;23.67;62.75;99254.88;4973366;28;20042;-87
2022/09/11 00:51:29;;;;;;;9.23;3.40;;;;;;;23.66;63.15;99285.47;4957220;28;20417;-87
2022/09/11 00:53:57;;;;;;;9.25;3.40;;;;;;;23.42;63.13;99230.69;4974932;28;20026;-87
2022/09/11 00:56:28;;;;;;;5.13;2.60;;;;;;;23.50;63.28;99265.09;4975106;28;20070;-86
2022/09/11 00:58:54;;;;;;;4.07;2.60;;;;;;;23.64;62.94;99264.03;4974958;28;20125;-87
2022/09/11 01:01:20;;;;;;;5.85;3.03;;;;;;;23.52;63.11;99255.06;4974837;28;20162;-86
2022/09/11 01:03:45;;;;;;;4.07;2.40;;;;;;;23.41;63.02;99250.47;4974371;28;20131;-87
2022/09/11 01:06:12;;;;;;;6.80;3.67;;;;;;;23.20;63.33;99219.81;4974655;28;20077;-85
2022/09/11 01:08:39;;;;;;;6.40;3.65;;;;;;;23.41;63.47;99272.00;4973052;28;20126;-87
2022/09/11 01:11:41;;;;;;;6.15;3.22;;;;;;;23.33;63.23;99244.84;4974759;28;20485;-86
2022/09/11 01:14:27;;;;;;;7.30;3.45;;;;;;;23.69;63.59;99304.06;4974451;28;20113;-86
2022/09/11 01:16:59;;;;;;;5.35;3.53;;;;;;;23.40;63.54;99270.31;4974460;28;20599;-86
2022/09/11 01:20:05;;;;;;;6.75;3.63;;;;;;;23.77;63.20;99296.25;4974579;28;20042;-88
2022/09/11 01:23:05;;;;;;;4.80;3.33;;;;;;;23.78;63.04;99300.69;4974319;28;20026;-88
2022/09/11 01:26:00;;;;;;;6.18;3.50;;;;;;;23.93;62.50;99291.47;4955285;29;20053;-87
2022/09/11 01:28:38;;;;;;;39.75;6.95;;;;;;;23.24;62.86;99206.00;4964222;28;20035;-86
2022/09/11 01:31:12;;;;;;;13.85;4.18;;;;;;;23.37;63.02;99234.69;4960181;28;20054;-86
2022/09/11 01:33:49;;;;;;;6.43;5.00;;;;;;;23.44;63.16;99248.56;4974046;28;20043;-86
2022/09/11 01:36:18;;;;;;;9.95;5.18;;;;;;;23.81;63.00;99287.00;4972607;28;20521;-86
2022/09/11 01:38:56;;;;;;;6.15;4.00;;;;;;;23.17;63.39;99218.22;4974215;28;20125;-86
2022/09/11 01:41:26;;;;;;;6.13;3.33;;;;;;;23.83;62.76;99282.34;4972988;28;20528;-87
2022/09/11 01:44:16;;;;;;;7.88;3.30;;;;;;;23.18;62.91;99176.03;4974430;28;20031;-86
2022/09/11 01:46:46;;;;;;;9.65;5.25;;;;;;;23.16;63.67;99229.09;4974231;28;20031;-86
2022/09/11 01:49:24;;;;;;;22.55;6.03;;;;;;;22.96;63.96;99209.88;4972848;28;20436;-85
2022/09/11 01:51:55;;;;;;;28.05;5.03;;;;;;;23.04;63.41;99198.56;4972213;28;20031;-86
2022/09/11 01:54:27;;;;;;;7.75;4.28;;;;;;;23.11;63.69;99236.63;4972437;28;20027;-85
2022/09/11 01:57:00;;;;;;;8.60;4.47;;;;;;;22.93;63.38;99190.44;4972876;28;20497;-86
2022/09/11 01:59:33;;;;;;;10.93;4.47;;;;;;;23.22;62.80;99225.94;4971851;28;20421;-88
2022/09/11 02:02:10;;;;;;;7.78;5.20;;;;;;;23.40;63.12;99273.00;4973578;28;20042;-85
2022/09/11 02:04:47;;;;;;;8.48;5.28;;;;;;;22.85;63.38;99194.53;4954458;28;20031;-85
2022/09/11 02:07:20;;;;;;;8.48;4.47;;;;;;;22.89;63.66;99184.41;4953537;29;20399;-86
2022/09/11 02:09:55;;;;;;;8.13;5.32;;;;;;;22.92;63.31;99207.53;4969623;28;20038;-87
2022/09/11 02:12:27;;;;;;;6.00;4.28;;;;;;;22.92;63.89;99221.84;4970474;28;20527;-87
2022/09/11 02:14:53;;;;;;;6.03;4.20;;;;;;;23.02;63.69;99230.09;4973662;28;20031;-87
2022/09/11 02:17:42;;;;;;;11.60;4.40;;;;;;;23.19;64.05;99264.69;4973396;28;20030;-85
2022/09/11 02:20:09;;;;;;;10.77;4.53;;;;;;;22.66;64.51;99216.56;4973286;28;20493;-85
2022/09/11 02:22:35;;;;;;;5.78;4.03;;;;;;;22.56;64.72;99180.56;4973174;28;20114;-86
2022/09/11 02:25:01;;;;;;;8.18;4.18;;;;;;;22.68;64.70;99208.38;4973079;28;20037;-86
2022/09/11 02:27:30;;;;;;;9.55;4.10;;;;;;;22.59;64.73;99199.16;4973483;28;20552;-85
2022/09/11 02:29:57;;;;;;;6.38;4.43;;;;;;;22.43;65.17;99177.91;4972817;28;20045;-85
2022/09/11 02:32:25;;;;;;;8.25;5.00;;;;;;;22.34;65.27;99178.56;4973530;28;20129;-86
2022/09/11 02:34:54;;;;;;;6.57;4.10;;;;;;;22.60;65.37;99243.88;4955251;28;20896;-87
2022/09/11 02:37:25;;;;;;;11.20;4.90;;;;;;;22.91;65.42;99289.16;4955415;28;20612;-85
2022/09/11 02:40:04;;;;;;;8.20;4.90;;;;;;;22.50;65.71;99237.44;4972282;28;20031;-85
2022/09/11 02:43:01;;;;;;;9.65;5.13;;;;;;;22.67;66.77;99292.66;4973442;28;20550;-85
2022/09/11 02:45:40;;;;;;;6.47;4.50;;;;;;;22.74;66.70;99293.06;4973484;28;20125;-85
2022/09/11 02:48:42;;;;;;;10.73;5.70;;;;;;;22.78;66.67;99283.84;4972497;28;20042;-86
2022/09/11 02:51:40;;;;;;;14.27;5.28;;;;;;;22.65;67.24;99284.72;4972716;28;20493;-87
2022/09/11 02:54:29;;;;;;;8.05;4.38;;;;;;;22.48;67.86;99283.22;4969210;28;20141;-87
2022/09/11 02:57:18;;;;;;;17.60;6.50;;;;;;;22.44;68.10;99288.94;4972348;28;20041;-86
2022/09/11 02:59:53;;;;;;;9.23;6.05;;;;;;;22.05;68.29;99228.97;4972762;28;20101;-86
2022/09/11 03:02:19;;;;;;;21.75;6.05;;;;;;;22.08;68.09;99244.84;4972796;28;20035;-86
2022/09/11 03:04:45;;;;;;;9.70;5.57;;;;;;;22.20;68.13;99254.75;4972470;28;20125;-87
2022/09/11 03:07:11;;;;;;;6.50;4.55;;;;;;;22.03;67.59;99209.38;4972773;28;20111;-87
2022/09/11 03:09:36;;;;;;;9.18;4.55;;;;;;;22.14;68.37;99282.88;4972057;28;20046;-85
2022/09/11 03:12:03;;;;;;;18.58;5.25;;;;;;;21.90;68.63;99229.03;4971521;28;20124;-85
2022/09/11 03:14:30;;;;;;;5.40;3.13;;;;;;;21.88;69.14;99273.94;4955043;28;20481;-85
2022/09/11 03:16:55;;;;;;;3.50;2.22;;;;;;;21.56;69.22;99212.56;4972387;28;20043;-86
2022/09/11 03:19:21;;;;;;;5.82;2.97;;;;;;;21.46;69.29;99185.47;4972100;28;20117;-85
2022/09/11 03:21:47;;;;;;;3.58;2.72;;;;;;;21.78;69.37;99240.63;4954952;28;20031;-85
2022/09/11 03:24:13;;;;;;;1.65;1.55;;;;;;;21.64;69.96;99271.09;4972910;28;20027;-86
2022/09/11 03:26:38;;;;;;;2.22;1.92;;;;;;;21.49;70.11;99245.25;4972121;28;20497;-86
2022/09/11 03:29:07;;;;;;;1.55;1.33;;;;;;;21.24;70.44;99212.03;4972230;28;20037;-86
2022/09/11 03:31:33;;;;;;;2.40;1.63;;;;;;;21.44;70.58;99241.09;4972482;28;20485;-86
2022/09/11 03:33:58;;;;;;;1.70;1.33;;;;;;;21.39;70.02;99228.94;4972225;28;20086;-85
2022/09/11 03:36:24;;;;;;;1.02;1.00;;;;;;;21.52;70.98;99288.91;4972165;28;20027;-86
2022/09/11 03:38:51;;;;;;;0.77;0.77;;;;;;;21.34;71.13;99261.44;4972032;28;20148;-86
2022/09/11 03:41:17;;;;;;;3.88;2.42;;;;;;;21.31;71.13;99266.16;4954869;28;20042;-87
2022/09/11 03:43:43;;;;;;;8.35;1.77;;;;;;;21.24;71.01;99231.69;4971799;28;20034;-86
2022/09/11 03:46:09;;;;;;;3.17;2.42;;;;;;;21.27;70.94;99263.66;4967078;28;20455;-87
2022/09/11 03:48:34;;;;;;;6.38;2.85;;;;;;;21.17;71.45;99248.28;4954281;28;20035;-87
2022/09/11 03:51:00;;;;;;;0.35;0.35;;;;;;;21.38;71.14;99268.31;4972124;28;20031;-86
2022/09/11 03:53:26;;;;;;;1.70;1.20;;;;;;;21.31;70.78;99268.81;4972293;28;20376;-86
2022/09/11 03:55:53;;;;;;;1.33;1.23;;;;;;;21.23;70.39;99238.00;4972484;28;20031;-87
2022/09/11 03:58:19;;;;;;;2.10;1.90;;;;;;;21.35;70.78;99289.97;4971847;28;20027;-86
2022/09/11 04:00:46;;;;;;;1.85;1.13;;;;;;;21.19;70.61;99240.97;4969069;28;20429;-86
2022/09/11 04:03:14;;;;;;;3.17;1.23;;;;;;;21.23;70.12;99247.88;4971677;28;20039;-85
2022/09/11 04:05:40;;;;;;;2.08;1.88;;;;;;;21.24;70.18;99262.97;4951588;28;20031;-86
2022/09/11 04:08:05;;;;;;;1.23;0.90;;;;;;;21.28;69.70;99269.88;4979788;28;20039;-86
2022/09/11 04:10:33;;;;;;;17.83;1.80;;;;;;;21.43;69.88;99300.19;4980966;28;20035;-86
2022/09/11 04:12:59;;;;;;;3.10;2.17;;;;;;;21.08;69.93;99257.78;4954388;28;20509;-87
2022/09/11 04:15:25;;;;;;;1.27;0.98;;;;;;;20.90;70.71;99233.06;4985400;28;20034;-86
2022/09/11 04:17:50;;;;;;;1.30;1.20;;;;;;;21.18;70.17;99263.38;4970710;28;20100;-86
2022/09/11 04:20:16;;;;;;;1.27;0.98;;;;;;;21.13;69.78;99239.56;4977932;28;20041;-88
2022/09/11 04:22:42;;;;;;;3.72;2.17;;;;;;;20.87;70.10;99209.97;4972134;28;20031;-86
2022/09/11 04:25:08;;;;;;;2.15;1.42;;;;;;;21.11;69.27;99242.34;4956307;28;20431;-87
2022/09/11 04:27:33;;;;;;;6.15;1.35;;;;;;;21.41;68.41;99264.56;4958387;28;20413;-87
2022/09/11 04:29:59;;;;;;;1.17;1.08;;;;;;;21.33;68.13;99264.22;4957389;28;20038;-86
2022/09/11 04:32:24;;;;;;;0.90;0.80;;;;;;;21.45;67.70;99249.97;4975164;28;20058;-85
2022/09/11 04:34:50;;;;;;;1.05;0.90;;;;;;;21.42;66.41;99239.44;4975639;28;20037;-87
2022/09/11 04:37:15;;;;;;;12.32;1.30;;;;;;;21.82;65.68;99258.25;4974927;28;20035;-85
2022/09/11 04:39:41;;;;;;;1.45;1.35;;;;;;;21.84;65.21;99267.03;4975034;28;20513;-87
2022/09/11 04:42:09;;;;;;;1.48;1.38;;;;;;;22.10;64.81;99286.72;4973896;28;20034;-85
2022/09/11 04:44:35;;;;;;;1.00;0.73;;;;;;;21.88;65.19;99244.41;4957719;28;20121;-86
2022/09/11 04:47:01;;;;;;;1.35;1.25;;;;;;;22.17;64.80;99269.22;4974796;28;20042;-86
2022/09/11 04:49:26;;;;;;;1.50;1.40;;;;;;;22.09;65.04;99255.50;4974146;28;20505;-86
2022/09/11 04:51:52;;;;;;;0.65;0.65;;;;;;;22.08;64.85;99247.53;4957574;28;20137;-87
2022/09/11 04:54:22;;;;;;;1.33;1.15;;;;;;;22.43;64.39;99280.03;4973317;28;20038;-85
2022/09/11 04:56:48;;;;;;;1.05;0.98;;;;;;;21.90;64.85;99237.09;4975139;28;20121;-85
2022/09/11 04:59:21;;;;;;;1.23;1.13;;;;;;;22.06;65.02;99265.56;4974615;28;20039;-88
2022/09/11 05:01:47;;;;;;;1.60;1.08;;;;;;;22.20;64.75;99278.91;4975018;28;20035;-87
2022/09/11 05:04:14;;;;;;;1.15;0.80;;;;;;;22.04;63.91;99216.50;4973327;28;20035;-87
2022/09/11 05:06:41;;;;;;;3.50;1.23;;;;;;;22.10;64.13;99243.75;4964160;28;20042;-87
2022/09/11 05:09:09;;;;;;;7.00;0.98;;;;;;;22.34;63.32;99260.03;4958745;28;20094;-87
2022/09/11 05:11:37;;;;;;;6.50;2.47;;;;;;;22.57;63.13;99281.72;4946333;28;20031;-87
2022/09/11 05:14:02;;;;;;;2.42;1.63;;;;;;;22.89;63.26;99313.47;4958241;28;20038;-87
2022/09/11 05:16:35;;;;;;;1.00;0.80;;;;;;;22.66;62.82;99273.00;4968313;28;20046;-86
2022/09/11 05:19:03;;;;;;;1.23;1.15;;;;;;;22.60;62.25;99248.38;4969371;28;20133;-89
2022/09/11 05:21:30;;;;;;;2.20;0.93;;;;;;;23.15;61.61;99306.22;4967249;28;20457;-88
2022/09/11 05:23:58;;;;;;;0.85;0.85;;;;;;;23.11;60.61;99252.78;4983109;28;20465;-88
2022/09/11 05:26:30;;;;;;;0.60;0.60;;;;;;;23.38;60.00;99269.56;4974450;28;20045;-87
2022/09/11 05:29:01;;;;;;;0.73;0.73;;;;;;;23.53;59.77;99266.69;4972554;28;20042;-90
2022/09/11 05:31:27;;;;;;;0.90;0.90;;;;;;;23.98;59.40;99322.59;4962309;28;20429;-89
2022/09/11 05:33:54;;;;;;;2.13;1.92;;;;;;;23.57;59.29;99254.69;4972816;28;20133;-88
2022/09/11 05:36:21;;;;;;;2.85;0.82;;;;;;;23.85;59.49;99277.75;4973935;28;20027;-89
2022/09/11 05:38:46;;;;;;;2.63;1.40;;;;;;;24.29;58.64;99280.63;4973045;28;20031;-89
2022/09/11 05:41:12;;;;;;;3.03;1.83;;;;;;;24.58;57.12;99266.72;4971818;28;20035;-89
2022/09/11 05:43:39;;;;;;;2.10;1.70;;;;;;;24.40;57.34;99279.78;4968855;28;20085;-88
2022/09/11 05:46:06;;;;;;;0.57;0.57;;;;;;;24.57;56.27;99308.09;4976752;28;20529;-87
2022/09/11 05:48:34;;;;;;;1.08;0.85;;;;;;;24.33;56.29;99236.31;4988789;28;20073;-87
2022/09/11 05:51:06;;;;;;;1.08;0.98;;;;;;;24.60;56.90;99314.13;4974352;28;20019;-88
2022/09/11 05:53:32;;;;;;;1.25;1.15;;;;;;;24.95;56.15;99328.50;4973514;28;20031;-90
2022/09/11 05:56:18;;;;;;;3.53;1.70;;;;;;;24.49;55.15;99292.53;4974263;28;20502;-91
2022/09/11 05:58:45;;;;;;;2.28;1.15;;;;;;;24.46;55.19;99277.47;4973586;28;20510;-88
2022/09/11 06:01:15;;;;;;;1.65;0.52;;;;;;;24.58;54.65;99255.94;4972249;28;20041;-89
2022/09/11 06:03:41;;;;;;;2.28;1.38;;;;;;;24.54;53.37;99244.50;4974369;28;20509;-91
2022/09/11 06:06:09;;;;;;;1.15;1.05;;;;;;;24.94;53.65;99254.78;4972266;28;20031;-88
2022/09/11 06:08:35;;;;;;;2.45;2.22;;;;;;;25.15;52.38;99297.19;4973556;28;20058;-88
2022/09/11 06:11:06;;;;;;;0.32;0.32;;;;;;;25.16;51.62;99259.28;4988767;28;20034;-87
2022/09/11 06:13:39;;;;;;;0.88;0.77;;;;;;;24.96;51.04;99281.63;4972110;28;20026;-89
2022/09/11 06:16:24;;;;;;;0.80;0.80;;;;;;;25.22;51.20;99265.16;4971686;28;20127;-90
2022/09/11 06:18:50;;;;;;;1.13;0.98;;;;;;;25.37;50.06;99261.22;4973781;28;20080;-86
2022/09/11 06:21:21;;;;;;;0.50;0.50;;;;;;;25.12;49.45;99222.75;4973608;28;20082;-89
2022/09/11 06:23:51;;;;;;;1.40;1.08;;;;;;;25.48;49.54;99281.91;4972305;28;20027;-88
2022/09/11 06:26:20;;;;;;;1.17;0.85;;;;;;;25.47;50.27;99261.28;4972355;28;20437;-87
2022/09/11 06:28:46;;;;;;;2.13;0.45;;;;;;;25.53;49.83;99260.78;4971933;28;20038;-88
2022/09/11 06:31:18;;;;;;;0.98;0.70;;;;;;;25.79;49.39;99238.81;4971688;28;20542;-87
2022/09/11 06:34:14;;;;;;;0.57;0.47;;;;;;;25.74;47.87;99223.00;4973559;28;20041;-91
2022/09/11 06:36:39;;;;;;;0.52;0.52;;;;;;;26.06;48.00;99278.84;4972674;28;20042;-87
2022/09/11 06:39:05;;;;;;;1.08;0.98;;;;;;;25.94;48.23;99288.81;4971283;28;20485;-86
2022/09/11 06:41:31;;;;;;;0.88;0.88;;;;;;;25.84;47.35;99277.06;4972536;28;20034;-87
2022/09/11 06:44:02;;;;;;;1.83;1.58;;;;;;;25.88;47.59;99281.25;4973148;28;20523;-90
2022/09/11 06:46:28;;;;;;;1.30;1.20;;;;;;;26.37;47.81;99297.78;4971528;28;20093;-87
2022/09/11 06:48:54;;;;;;;1.15;0.95;;;;;;;26.33;46.80;99234.19;4973144;28;20118;-87
2022/09/11 06:51:22;;;;;;;0.50;0.50;;;;;;;25.97;46.12;99230.97;4972824;28;20042;-85
2022/09/11 06:53:52;;;;;;;18.33;1.27;;;;;;;26.07;45.93;99221.97;4973033;28;20030;-85
2022/09/11 06:56:17;;;;;;;0.70;0.63;;;;;;;26.70;45.54;99290.44;4973525;28;20489;-85
2022/09/11 06:58:44;;;;;;;3.22;1.67;;;;;;;26.44;45.24;99253.84;4972956;28;20035;-86
2022/09/11 07:01:14;;;;;;;1.23;1.13;;;;;;;26.09;45.03;99265.06;4973019;28;20125;-85
2022/09/11 07:03:44;;;;;;;1.38;0.95;;;;;;;26.04;45.39;99232.16;4972716;28;20860;-85
2022/09/11 07:06:14;;;;;;;0.95;0.75;;;;;;;26.11;45.36;99268.47;4972779;28;20121;-85
2022/09/11 07:08:40;;;;;;;20.92;1.50;;;;;;;26.57;44.96;99253.63;4971292;28;20445;-85
2022/09/11 07:11:11;;;;;;;0.60;0.47;;;;;;;26.21;43.91;99231.56;4972703;28;20057;-86
2022/09/11 07:13:37;;;;;;;18.63;0.68;;;;;;;26.45;44.96;99285.31;4972933;28;20432;-86
2022/09/11 07:16:08;;;;;;;1.30;0.90;;;;;;;26.75;43.88;99245.75;4972467;28;20511;-86
2022/09/11 07:18:39;;;;;;;2.55;1.20;;;;;;;26.45;43.21;99235.78;4972666;28;20031;-85
2022/09/11 07:21:13;;;;;;;0.98;0.88;;;;;;;27.05;43.88;99283.69;4972277;28;20038;-87
2022/09/11 07:23:42;;;;;;;0.55;0.55;;;;;;;27.58;43.60;99285.25;4972625;28;20039;-87
2022/09/11 07:26:11;;;;;;;1.50;1.13;;;;;;;27.66;43.17;99307.91;4972577;28;20030;-87
2022/09/11 07:28:38;;;;;;;2.47;0.88;;;;;;;27.31;42.69;99293.06;4972196;28;20050;-87
2022/09/11 07:31:09;;;;;;;1.27;0.38;;;;;;;27.31;42.27;99298.50;4972308;28;20053;-87
2022/09/11 07:33:37;;;;;;;1.25;0.85;;;;;;;27.12;40.86;99285.72;4972385;28;20564;-87
2022/09/11 07:36:12;;;;;;;0.30;0.30;;;;;;;27.15;40.97;99274.59;4954961;28;20030;-88
2022/09/11 07:38:39;;;;;;;3.50;0.95;;;;;;;27.62;42.97;99325.47;4954534;28;20043;-87
2022/09/11 07:41:07;;;;;;;0.17;0.17;;;;;;;27.98;41.26;99246.31;4972186;28;20037;-86
2022/09/11 07:43:34;;;;;;;0.50;0.50;;;;;;;28.15;39.27;99283.53;4972220;28;20023;-86
2022/09/11 07:46:00;;;;;;;2.05;1.13;;;;;;;28.17;40.03;99324.03;4972188;28;20038;-86
2022/09/11 07:48:25;;;;;;;1.10;0.77;;;;;;;27.57;40.93;99294.38;4954752;28;20101;-86
2022/09/11 07:51:06;;;;;;;0.38;0.38;;;;;;;27.55;41.10;99272.84;4955048;28;20027;-85
2022/09/11 07:53:40;;;;;;;0.28;0.28;;;;;;;28.09;40.94;99310.38;4954838;28;20037;-85
2022/09/11 07:56:11;;;;;;;2.30;1.38;;;;;;;27.81;39.91;99291.25;4972078;28;20031;-87
2022/09/11 07:58:39;;;;;;;2.00;1.15;;;;;;;27.86;40.38;99269.97;4956565;28;20039;-88
2022/09/11 08:01:06;;;;;;;0.28;0.20;;;;;;;27.96;39.10;99254.59;4976186;28;20026;-87
2022/09/11 08:03:33;;;;;;;1.02;0.93;;;;;;;28.09;39.17;99294.09;4958191;28;20469;-87
2022/09/11 08:06:07;;;;;;;1.33;0.90;;;;;;;28.16;40.06;99277.09;4958471;28;20397;-88
2022/09/11 08:08:35;;;;;;;0.45;0.38;;;;;;;28.51;38.54;99343.38;4977575;28;20035;-89
2022/09/11 08:11:04;;;;;;;0.43;0.43;;;;;;;28.61;38.14;99296.41;4960725;28;20042;-85
2022/09/11 08:13:29;;;;;;;1.02;0.50;;;;;;;28.63;38.79;99289.84;4975875;28;20038;-85
2022/09/11 08:15:55;;;;;;;0.45;0.40;;;;;;;27.91;37.50;99286.66;4958543;28;20043;-86
2022/09/11 08:18:21;;;;;;;1.80;1.50;;;;;;;27.72;37.99;99282.09;4976190;28;20093;-86
2022/09/11 08:20:47;;;;;;;0.25;0.25;;;;;;;27.34;39.04;99248.59;4975897;28;20069;-85
2022/09/11 08:23:14;;;;;;;0.77;0.55;;;;;;;27.90;40.47;99286.78;4974457;28;20066;-87
2022/09/11 08:25:41;;;;;;;0.90;0.77;;;;;;;28.36;37.92;99282.47;4975491;28;20062;-89
2022/09/11 08:28:07;;;;;;;0.38;0.35;;;;;;;28.36;38.13;99279.75;4975664;28;20035;-86
2022/09/11 08:30:39;;;;;;;1.38;0.88;;;;;;;28.31;38.61;99244.94;4975795;28;20026;-90
2022/09/11 08:33:25;;;;;;;0.55;0.40;;;;;;;28.23;37.98;99255.69;4975968;28;20037;-89
2022/09/11 08:35:50;;;;;;;0.85;0.82;;;;;;;28.20;38.87;99237.00;4957262;28;20486;-89
2022/09/11 08:38:19;;;;;;;0.70;0.55;;;;;;;28.15;37.27;99217.59;4973966;28;20038;-91
2022/09/11 08:40:54;;;;;;;2.13;1.30;;;;;;;28.39;38.95;99317.41;4975235;28;20223;-88
2022/09/11 08:46:55;;;;;;;1.13;0.80;;;;;;;28.51;39.45;99262.00;4976087;28;20132;-89
2022/09/11 08:53:01;;;;;;;0.47;0.47;;;;;;;28.48;37.68;99205.31;4974769;28;20047;-89
2022/09/11 08:59:23;;;;;;;0.73;0.73;;;;;;;29.42;38.66;99277.53;4975177;28;20405;-92
2022/09/11 09:02:40;;;;;;;;;;;;;;;;;;;;;
2022/09/11 09:05:25;;;;;;;0.75;0.75;;;;;;;29.31;36.75;99271.50;4974309;28;20033;-91
2022/09/11 09:08:20;;;;;;;8.13;0.98;;;;;;;29.23;36.25;99273.13;4953073;29;20066;-88
2022/09/11 09:11:03;;;;;;;0.77;0.63;;;;;;;29.20;36.95;99262.56;4953210;28;20046;-89
2022/09/11 09:13:36;;;;;;;1.13;0.45;;;;;;;29.05;36.54;99237.75;4953575;29;20032;-89
2022/09/11 09:16:22;;;;;;;0.52;0.35;;;;;;;28.97;36.21;99190.69;4953142;29;20031;-89
2022/09/11 09:18:56;;;;;;;1.23;0.95;;;;;;;29.17;35.94;99237.56;4953227;28;20042;-89
2022/09/11 09:22:08;;;;;;;0.38;0.38;;;;;;;29.12;36.98;99259.72;4953002;29;20490;-89
2022/09/11 09:25:04;;;;;;;1.17;0.63;;;;;;;29.32;36.34;99249.63;4928104;29;20031;-90
2022/09/11 09:27:43;;;;;;;0.47;0.30;;;;;;;29.04;36.18;99216.19;4935976;29;20135;-89
2022/09/11 09:30:47;;;;;;;1.35;0.80;;;;;;;28.53;36.59;99213.00;4952750;28;20141;-91
2022/09/11 09:33:14;;;;;;;;;;;;;;;28.89;36.22;99252.00;4956380;28;20050;-90
2022/09/11 09:35:42;;;;;;;2.83;0.85;;;;;;;28.78;37.47;99195.22;4955571;28;19918;-91
2022/09/11 09:38:24;;;;;;;1.40;0.70;;;;;;;29.40;35.66;99260.56;4972884;28;20039;-90
2022/09/11 09:41:08;;;;;;;0.70;0.70;;;;;;;29.55;35.13;99247.28;4974208;28;20034;-90
2022/09/11 09:44:18;;;;;;;0.22;0.22;;;;;;;28.95;33.39;99169.13;4957168;28;20037;-90
2022/09/11 09:46:54;;;;;;;3.22;0.65;;;;;;;28.81;33.53;99156.06;4913414;28;20042;-89
2022/09/11 09:49:36;;;;;;;0.60;0.60;;;;;;;29.30;32.20;99224.47;4973992;28;20038;-89
2022/09/11 09:52:34;;;;;;;1.00;0.60;;;;;;;29.38;33.34;99219.13;4956530;28;20039;-90
2022/09/11 09:55:19;;;;;;;1.00;0.43;;;;;;;29.22;34.76;99200.78;4931622;28;20043;-90
2022/09/11 09:57:48;;;;;;;11.88;0.77;;;;;;;29.20;34.65;99194.66;4973791;28;20118;-91
2022/09/11 10:00:21;;;;;;;2.53;0.65;;;;;;;29.07;35.24;99161.56;4956218;28;20045;-91
2022/09/11 10:03:15;;;;;;;1.42;1.33;;;;;;;29.75;35.24;99223.50;4956885;28;20034;-91
2022/09/11 10:05:49;;;;;;;0.38;0.38;;;;;;;29.73;33.74;99220.09;4972146;28;20041;-90
2022/09/11 10:08:35;;;;;;;1.42;1.00;;;;;;;29.91;35.49;99211.09;4956613;28;20070;-90
2022/09/11 10:11:09;;;;;;;0.70;0.70;;;;;;;29.57;35.79;99155.59;4956472;28;20117;-91
2022/09/11 10:13:44;;;;;;;1.23;0.73;;;;;;;29.52;34.74;99149.81;4956337;28;20030;-90
2022/09/11 10:19:45;;;;;;;2.03;0.65;;;;;;;29.99;34.53;99217.41;4943125;28;20408;-88
2022/09/11 10:22:41;;;;;;;1.05;0.35;;;;;;;29.65;34.72;99211.88;4955538;28;20520;-90
2022/09/11 10:25:25;;;;;;;1.20;0.43;;;;;;;29.57;34.06;99133.03;4973800;28;20038;-92
2022/09/11 10:28:11;;;;;;;3.00;0.75;;;;;;;29.88;33.81;99206.81;4956169;28;20034;-91
2022/09/11 10:31:09;;;;;;;;;;;;;;;;;;;;;
2022/09/11 10:34:18;;;;;;;1.55;1.00;;;;;;;29.10;33.95;99148.56;4973779;28;20064;-91
2022/09/11 10:37:18;;;;;;;1.20;0.93;;;;;;;29.96;34.58;99204.13;4947579;28;20042;-92
2022/09/11 10:40:24;;;;;;;3.78;1.98;;;;;;;29.96;34.02;99200.59;4973425;28;20109;-90
2022/09/11 10:42:51;;;;;;;1.15;0.80;;;;;;;30.10;34.12;99169.22;4956003;28;20037;-90
2022/09/11 10:46:06;;;;;;;1.08;0.95;;;;;;;29.72;35.52;99158.59;4956046;28;20058;-90
2022/09/11 10:48:41;;;;;;;0.82;0.73;;;;;;;29.97;32.97;99192.25;4972729;28;20093;-90
2022/09/11 10:51:10;;;;;;;1.08;0.52;;;;;;;29.92;32.83;99142.97;4932084;29;20503;-89
2022/09/11 10:54:12;;;;;;;1.55;1.05;;;;;;;29.72;32.40;99109.69;4932466;29;20039;-90
2022/09/11 10:57:19;;;;;;;0.63;0.60;;;;;;;30.22;31.62;99170.66;4932373;29;20027;-89
2022/09/11 11:00:07;;;;;;;0.15;0.15;;;;;;;30.23;33.57;99174.22;4914625;29;20115;-89
2022/09/11 11:02:36;;;;;;;1.98;1.17;;;;;;;30.04;34.71;99123.66;4916392;29;20046;-89
2022/09/11 11:05:10;;;;;;;0.55;0.52;;;;;;;30.04;32.29;99105.47;4916209;29;20104;-88
2022/09/11 11:07:36;;;;;;;0.90;0.83;;;;;;;30.24;32.93;99163.16;4932238;29;20127;-89
2022/09/11 11:10:13;;;;;;;2.40;1.25;;;;;;;29.72;31.71;99115.13;4932134;29;20062;-90
2022/09/11 11:13:17;;;;;;;0.60;0.50;;;;;;;30.18;32.38;99164.69;4931879;29;20099;-90
2022/09/11 11:15:51;;;;;;;0.70;0.70;;;;;;;30.44;31.60;99149.34;4932051;29;20510;-89
2022/09/11 11:18:57;;;;;;;0.37;0.37;;;;;;;30.74;33.21;99166.13;4932138;29;20023;-89
2022/09/11 11:21:52;;;;;;;1.25;0.98;;;;;;;30.61;32.61;99161.16;4939554;28;20784;-88
2022/09/11 11:24:53;;;;;;;0.95;0.73;;;;;;;30.78;31.30;99162.91;4972333;28;20042;-89
2022/09/11 11:27:47;;;;;;;2.55;0.57;;;;;;;30.81;29.03;99153.56;4950315;29;20043;-89
2022/09/11 11:30:18;;;;;;;0.80;0.50;;;;;;;30.66;32.24;99145.16;4934641;29;20043;-88
2022/09/11 11:33:04;;;;;;;0.00;0.00;;;;;;;30.60;29.54;99145.84;4967241;28;20046;-89
2022/09/11 11:36:28;;;;;;;1.00;0.65;;;;;;;30.93;31.17;99148.66;4953566;28;20035;-91
2022/09/11 11:39:49;;;;;;;2.22;1.33;;;;;;;30.84;29.86;99132.28;4931535;29;20047;-92
2022/09/11 11:43:18;;;;;;;0.13;0.13;;;;;;;30.76;29.88;99143.16;4947344;28;20039;-91
2022/09/11 11:45:43;;;;;;;0.20;0.20;;;;;;;31.08;31.32;99133.38;4964826;28;20628;-90
2022/09/11 11:49:04;;;;;;;;;;;;;;;;;;;;;
2022/09/11 11:51:42;;;;;;;0.20;0.20;;;;;;;30.53;29.91;99056.69;4955053;28;20035;-91
2022/09/11 11:54:51;;;;;;;0.15;0.15;;;;;;;30.92;29.62;99119.72;4953944;28;20042;-90
2022/09/11 11:57:34;;;;;;;1.33;0.98;;;;;;;30.87;28.15;99087.53;4946772;28;20524;-93
2022/09/11 12:00:44;;;;;;;0.30;0.30;;;;;;;30.84;29.31;99090.59;4954900;28;20027;-93
2022/09/11 12:03:24;;;;;;;0.30;0.30;;;;;;;30.43;29.41;99049.69;4955100;28;20035;-90
2022/09/11 12:05:49;;;;;;;0.30;0.30;;;;;;;30.70;29.16;99034.97;4972004;28;20035;-91
2022/09/11 12:08:15;;;;;;;0.38;0.25;;;;;;;31.10;30.75;99068.69;4954913;28;20476;-89
2022/09/11 12:11:11;;;;;;;0.85;0.85;;;;;;;31.16;28.54;99124.38;4972084;28;20421;-92
2022/09/11 12:13:43;;;;;;;0.50;0.50;;;;;;;31.03;28.71;99067.66;4953138;28;20090;-89
2022/09/11 12:16:16;;;;;;;0.30;0.30;;;;;;;31.28;29.72;99103.94;4972108;28;20031;-89
2022/09/11 12:19:04;;;;;;;0.30;0.30;;;;;;;30.84;29.79;99034.28;4972216;28;20023;-89
2022/09/11 12:21:33;;;;;;;0.63;0.30;;;;;;;31.59;28.81;99106.81;4971973;28;20035;-88
2022/09/11 12:24:05;;;;;;;0.70;0.52;;;;;;;32.00;29.77;99078.59;4954711;28;20062;-90
2022/09/11 12:26:30;;;;;;;0.93;0.50;;;;;;;31.65;28.06;99028.09;4971820;28;20027;-88